Pagina principale
METAR-TAF:

METAR-TAF

Aeroporti :

Bolzano, Italia

latitudine: 46-28N, longitudine: 011-20E, altezza: 262 m

Osservazione

Il bollettino è stato emesso 59 minuti fa, alle 16:50 UTC
Vento 6 kt da sud, variando fra sud/sud-est e sud-ovest
Temperature 22°C
Umidità 41%
Pressione 1012 hPa
Visibilità 10 km o più
nessuna nube inferiore a 1500 m e nessun cumulonembo

METAR: LIPB 311650Z 18006KT 160V220 CAVOK 22/08 Q1012 RMK MON LIB

Ora: 19:49 (17:49 UTC)

Previsione

Il bollettino è stato emesso 49 minuti fa, alle 17:00 UTC
Previsione valida dal 31 alle 18 UTC al 01 alle 18 UTC
Vento 6 kt da direzioni variabili
Visibilità 10 km o più
Nuvoloso ad un'altezza di 5000 ft

TAF: LIPB 311700Z 3118/0118 VRB06KT 9999 BKN050

Osservazioni e previsioni meteorologiche di più di 4000 aeroporti (messaggi METAR e TAF).

Le stazioni disponibili sono rappresentate dai dischi gialli e rossi sulla carta.

Puntare il mouse per vedere il nome della stazione.

Clicca sopra per visualizzare le osservazioni e previsioni meteorologiche.

Per cambiare la mappa : fare clic sui pulsanti verdi con una croce nera per ingrandire, il pulsante verde con un trattino per diminuire, o sulla freccia verde per le mappe adiacenti.


METAR-TAF: